createdAt,value
2023-05-10T00:01:26.953Z,98856.34
2023-05-10T00:03:53.579Z,98858.25
2023-05-10T00:06:20.287Z,98853.63
2023-05-10T00:08:46.821Z,98855.22
2023-05-10T00:11:13.343Z,98850.91
2023-05-10T00:13:39.912Z,98852.50
2023-05-10T00:16:06.579Z,98848.66
2023-05-10T00:18:33.120Z,98848.66
2023-05-10T00:20:59.727Z,98855.69
2023-05-10T00:23:26.253Z,98849.13
2023-05-10T00:25:52.775Z,98848.16
2023-05-10T00:28:19.363Z,98847.50
2023-05-10T00:30:45.949Z,98851.47
2023-05-10T00:33:12.585Z,98852.59
2023-05-10T00:35:39.280Z,98847.81
2023-05-10T00:38:05.812Z,98850.88
2023-05-10T00:40:32.392Z,98839.22
2023-05-10T00:43:00.492Z,98844.19
2023-05-10T00:45:27.145Z,98839.56
2023-05-10T00:47:56.186Z,98844.63
2023-05-10T00:50:24.410Z,98844.63
2023-05-10T00:52:51.372Z,98850.53
2023-05-10T00:55:18.916Z,98850.53
2023-05-10T00:57:45.559Z,98850.22
2023-05-10T01:00:13.873Z,98842.84
2023-05-10T01:02:41.624Z,98856.91
2023-05-10T01:05:08.419Z,98856.78
2023-05-10T01:07:34.999Z,98855.03
2023-05-10T01:10:01.633Z,98863.63
2023-05-10T01:12:28.345Z,98855.97
2023-05-10T01:14:55.900Z,98860.28
2023-05-10T01:17:23.531Z,98853.06
2023-05-10T01:19:50.780Z,98856.28
2023-05-10T01:22:58.606Z,98856.91
2023-05-10T01:25:53.260Z,98852.13
2023-05-10T01:28:44.652Z,98850.53
2023-05-10T01:31:32.655Z,98847.34
2023-05-10T01:34:13.121Z,98847.34
2023-05-10T01:36:49.322Z,98854.38
2023-05-10T01:39:22.182Z,98844.19
2023-05-10T01:42:04.529Z,98837.47
2023-05-10T01:44:38.716Z,98827.88
2023-05-10T01:47:18.381Z,98831.91
2023-05-10T01:49:51.635Z,98836.53
2023-05-10T01:52:21.205Z,98846.13
2023-05-10T01:54:56.689Z,98859.84
2023-05-10T01:57:26.971Z,98858.91
2023-05-10T01:59:54.628Z,98868.81
2023-05-10T02:02:23.270Z,98863.22
2023-05-10T02:04:51.705Z,98859.25
2023-05-10T02:07:19.084Z,98863.09
2023-05-10T02:09:49.702Z,98868.34
2023-05-10T02:12:17.183Z,98855.75
2023-05-10T02:14:45.137Z,98859.78
2023-05-10T02:17:12.869Z,98860.88
2023-05-10T02:19:41.924Z,98852.94
2023-05-10T02:22:09.984Z,98858.03
2023-05-10T02:24:38.126Z,98866.16
2023-05-10T02:27:05.311Z,98870.34
2023-05-10T02:29:33.404Z,98863.16
2023-05-10T02:32:01.018Z,98856.13
2023-05-10T02:34:28.739Z,98863.31
2023-05-10T02:36:57.108Z,98865.88
2023-05-10T02:39:24.838Z,98863.03
2023-05-10T02:41:53.323Z,98858.25
2023-05-10T02:44:21.092Z,98862.69
2023-05-10T02:46:48.079Z,98870.69
2023-05-10T02:49:15.228Z,98875.13
2023-05-10T02:52:00.994Z,98865.25
2023-05-10T02:54:32.848Z,98871.81
2023-05-10T02:57:03.941Z,98870.22
2023-05-10T02:59:30.549Z,98870.84
2023-05-10T03:01:57.274Z,98870.69
2023-05-10T03:04:23.827Z,98875.94
2023-05-10T03:06:51.236Z,98876.56
2023-05-10T03:09:17.876Z,98868.59
2023-05-10T03:12:14.783Z,98859.06
2023-05-10T03:15:01.666Z,98872.59
2023-05-10T03:17:41.059Z,98865.09
2023-05-10T03:20:11.344Z,98868.25
2023-05-10T03:22:44.347Z,98871.28
2023-05-10T03:25:12.571Z,98873.47
2023-05-10T03:27:42.763Z,98873.94
2023-05-10T03:30:12.783Z,98881.28
2023-05-10T03:32:40.153Z,98879.34
2023-05-10T03:35:11.280Z,98879.19
2023-05-10T03:37:38.014Z,98880.63
2023-05-10T03:40:05.444Z,98887.97
2023-05-10T03:42:32.150Z,98901.81
2023-05-10T03:44:58.735Z,98906.41
2023-05-10T03:47:25.293Z,98903.88
2023-05-10T03:49:51.857Z,98912.47
2023-05-10T03:52:19.169Z,98908.66
2023-05-10T03:54:45.697Z,98906.44
2023-05-10T03:57:12.244Z,98905.78
2023-05-10T03:59:38.841Z,98908.41
2023-05-10T04:02:05.461Z,98900.28
2023-05-10T04:04:31.972Z,98903.25
2023-05-10T04:06:58.722Z,98916.53
2023-05-10T04:09:25.294Z,98921.94
2023-05-10T04:11:52.172Z,98918.13
2023-05-10T04:14:18.800Z,98919.72
2023-05-10T04:16:45.902Z,98919.09
2023-05-10T04:19:12.652Z,98921.97
2023-05-10T04:21:39.223Z,98925.47
2023-05-10T04:24:06.062Z,98922.75
2023-05-10T04:26:32.593Z,98911.63
2023-05-10T04:28:59.116Z,98916.22
2023-05-10T04:31:25.833Z,98924.66
2023-05-10T04:33:52.489Z,98919.25
2023-05-10T04:36:19.262Z,98917.34
2023-05-10T04:38:45.824Z,98927.38
2023-05-10T04:41:12.512Z,98926.28
2023-05-10T04:43:39.497Z,98937.28
2023-05-10T04:46:07.135Z,98942.22
2023-05-10T04:48:33.855Z,98940.91
2023-05-10T04:51:00.694Z,98930.44
2023-05-10T04:53:27.363Z,98929.03
2023-05-10T04:55:53.942Z,98935.25
2023-05-10T04:58:20.466Z,98929.81
2023-05-10T05:00:47.010Z,98934.13
2023-05-10T05:03:13.703Z,98944.50
2023-05-10T05:05:40.302Z,98943.53
2023-05-10T05:08:07.115Z,98951.50
2023-05-10T05:10:33.692Z,98951.97
2023-05-10T05:13:00.417Z,98951.50
2023-05-10T05:15:27.081Z,98946.25
2023-05-10T05:17:53.691Z,98959.47
2023-05-10T05:20:20.419Z,98955.34
2023-05-10T05:22:46.948Z,98958.34
2023-05-10T05:25:13.709Z,98963.31
2023-05-10T05:27:40.384Z,98970.31
2023-05-10T05:30:08.644Z,98969.84
2023-05-10T05:32:35.426Z,98970.97
2023-05-10T05:35:02.022Z,98972.38
2023-05-10T05:37:28.566Z,98981.81
2023-05-10T05:39:56.042Z,98982.28
2023-05-10T05:42:22.701Z,98981.97
2023-05-10T05:44:49.299Z,98993.78
2023-05-10T05:47:15.940Z,98999.38
2023-05-10T05:49:42.584Z,98992.97
2023-05-10T05:52:09.251Z,98995.50
2023-05-10T05:54:35.989Z,98987.81
2023-05-10T05:57:02.536Z,98994.47
2023-05-10T05:59:29.455Z,98986.94
2023-05-10T06:01:56.056Z,98991.69
2023-05-10T06:04:22.822Z,98988.31
2023-05-10T06:06:49.620Z,98996.31
2023-05-10T06:09:16.882Z,98999.66
2023-05-10T06:11:43.946Z,98985.13
2023-05-10T06:14:10.749Z,98999.56
2023-05-10T06:16:37.399Z,98998.16
2023-05-10T06:19:04.284Z,98995.28
2023-05-10T06:21:31.282Z,98998.25
2023-05-10T06:23:57.990Z,99013.81
2023-05-10T06:26:24.554Z,99011.69
2023-05-10T06:28:51.104Z,99011.34
2023-05-10T06:31:17.834Z,99020.97
2023-05-10T06:33:44.429Z,99024.19
2023-05-10T06:36:10.965Z,99020.56
2023-05-10T06:38:37.843Z,99020.41
2023-05-10T06:41:04.396Z,99013.53
2023-05-10T06:43:31.154Z,99022.81
2023-05-10T06:45:57.788Z,99024.69
2023-05-10T06:48:24.665Z,99015.69
2023-05-10T06:50:51.208Z,99032.00
2023-05-10T06:53:27.311Z,99029.97
2023-05-10T06:55:53.865Z,99044.09
2023-05-10T06:58:20.367Z,99044.88
2023-05-10T07:00:48.016Z,99047.34
2023-05-10T07:03:14.723Z,99045.94
2023-05-10T07:05:41.329Z,99053.94
2023-05-10T07:08:08.526Z,99064.50
2023-05-10T07:10:35.086Z,99058.88
2023-05-10T07:13:02.464Z,99061.94
2023-05-10T07:15:29.519Z,99068.16
2023-05-10T07:17:56.677Z,99071.81
2023-05-10T07:20:23.319Z,99061.59
2023-05-10T07:22:49.998Z,99070.16
2023-05-10T07:25:16.921Z,99075.09
2023-05-10T07:27:43.593Z,99067.38
2023-05-10T07:30:10.565Z,99074.91
2023-05-10T07:32:37.509Z,99067.72
2023-05-10T07:35:04.432Z,99076.22
2023-05-10T07:37:31.088Z,99077.81
2023-05-10T07:39:57.641Z,99082.78
2023-05-10T07:42:24.580Z,99080.06
2023-05-10T07:44:51.169Z,99075.25
2023-05-10T07:47:17.703Z,99081.03
2023-05-10T07:49:44.558Z,99088.41
2023-05-10T07:52:11.183Z,99077.09
2023-05-10T07:54:38.479Z,99090.34
2023-05-10T07:57:04.978Z,99083.81
2023-05-10T07:59:31.553Z,99098.94
2023-05-10T08:01:58.072Z,99091.09
2023-05-10T08:04:25.100Z,99090.16
2023-05-10T08:06:51.699Z,99100.06
2023-05-10T08:09:18.828Z,99097.34
2023-05-10T08:11:45.443Z,99091.44
2023-05-10T08:14:12.104Z,99096.75
2023-05-10T08:16:38.620Z,99092.56
2023-05-10T08:19:05.922Z,99099.59
2023-05-10T08:21:32.914Z,99096.09
2023-05-10T08:23:59.447Z,99085.34
2023-05-10T08:26:26.941Z,99084.38
2023-05-10T08:28:53.527Z,99087.00
2023-05-10T08:31:20.298Z,99097.22
2023-05-10T08:33:46.971Z,99093.69
2023-05-10T08:36:15.241Z,99099.41
2023-05-10T08:38:41.836Z,99101.81
2023-05-10T08:41:08.651Z,99094.91
2023-05-10T08:43:37.300Z,99093.66
2023-05-10T08:46:06.261Z,99100.31
2023-05-10T08:48:35.387Z,99101.91
2023-05-10T08:51:03.797Z,99104.63
2023-05-10T08:53:34.052Z,99106.41
2023-05-10T08:56:02.291Z,99116.66
2023-05-10T08:58:29.290Z,99112.09
2023-05-10T09:00:56.970Z,99113.56
2023-05-10T09:03:23.666Z,99112.13
2023-05-10T09:05:50.536Z,99124.13
2023-05-10T09:08:19.873Z,99125.94
2023-05-10T09:10:48.593Z,99133.47
2023-05-10T09:13:16.560Z,99132.66
2023-05-10T09:15:45.643Z,99130.56
2023-05-10T09:18:12.748Z,99134.88
2023-05-10T09:20:39.404Z,99133.47
2023-05-10T09:23:06.769Z,99135.38
2023-05-10T09:25:36.613Z,99132.81
2023-05-10T09:28:03.395Z,99122.88
2023-05-10T09:30:31.714Z,99133.06
2023-05-10T09:32:59.980Z,99126.13
2023-05-10T09:35:29.873Z,99128.19
2023-05-10T09:37:59.042Z,99126.31
2023-05-10T09:40:27.078Z,99135.88
2023-05-10T09:43:07.893Z,99134.75
2023-05-10T09:45:38.284Z,99147.56
2023-05-10T09:48:06.105Z,99135.13
2023-05-10T09:50:32.820Z,99135.25
2023-05-10T09:53:01.330Z,99141.06
2023-05-10T09:55:50.258Z,99141.72
2023-05-10T09:58:17.132Z,99152.59
2023-05-10T10:00:45.759Z,99148.94
2023-05-10T10:03:20.032Z,99155.94
2023-05-10T10:05:48.865Z,99157.72
2023-05-10T10:08:17.574Z,99156.88
2023-05-10T10:10:47.596Z,99157.97
2023-05-10T10:13:15.039Z,99161.16
2023-05-10T10:15:44.213Z,99157.31
2023-05-10T10:18:14.657Z,99148.31
2023-05-10T10:20:41.748Z,99160.56
2023-05-10T10:23:09.365Z,99160.06
2023-05-10T10:25:36.621Z,99153.78
2023-05-10T10:28:27.542Z,99158.25
2023-05-10T10:30:57.481Z,99151.06
2023-05-10T10:33:48.798Z,99147.88
2023-05-10T10:36:16.557Z,99139.94
2023-05-10T10:38:49.083Z,99151.72
2023-05-10T10:41:36.120Z,99149.41
2023-05-10T10:44:39.337Z,99150.22
2023-05-10T10:47:26.170Z,99143.13
2023-05-10T10:50:04.698Z,99136.97
2023-05-10T10:52:44.445Z,99140.34
2023-05-10T10:55:19.944Z,99143.06
2023-05-10T10:58:01.659Z,99146.84
2023-05-10T11:00:37.889Z,99150.72
2023-05-10T11:03:15.747Z,99146.41
2023-05-10T11:05:46.556Z,99148.22
2023-05-10T11:08:30.754Z,99142.25
2023-05-10T11:11:00.335Z,99140.00
2023-05-10T11:13:34.212Z,99138.72
2023-05-10T11:16:12.589Z,99130.28
2023-05-10T11:18:39.278Z,99136.28
2023-05-10T11:21:10.381Z,99133.72
2023-05-10T11:23:48.933Z,99118.94
2023-05-10T11:26:15.878Z,99122.41
2023-05-10T11:28:45.086Z,99133.31
2023-05-10T11:31:13.566Z,99126.72
2023-05-10T11:33:51.702Z,99128.56
2023-05-10T11:36:26.917Z,99129.25
2023-05-10T11:38:53.953Z,99126.63
2023-05-10T11:41:24.536Z,99125.38
2023-05-10T11:43:52.631Z,99120.81
2023-05-10T11:46:22.437Z,99122.28
2023-05-10T11:48:54.038Z,99115.13
2023-05-10T11:51:22.768Z,99121.72
2023-05-10T11:53:54.442Z,99125.63
2023-05-10T11:56:22.756Z,99119.47
2023-05-10T11:58:57.061Z,99124.25
2023-05-10T12:01:25.438Z,99120.38
2023-05-10T12:03:53.573Z,99112.88
2023-05-10T12:06:21.416Z,99114.22
2023-05-10T12:08:53.634Z,99109.44
2023-05-10T12:11:22.867Z,99105.81
2023-05-10T12:13:50.834Z,99112.53
2023-05-10T12:16:22.762Z,99116.06
2023-05-10T12:18:52.073Z,99121.41
2023-05-10T12:21:20.824Z,99113.56
2023-05-10T12:23:49.810Z,99111.50
2023-05-10T12:26:16.505Z,99114.22
2023-05-10T12:28:43.111Z,99119.34
2023-05-10T12:31:10.104Z,99125.03
2023-05-10T12:33:42.461Z,99114.69
2023-05-10T12:36:10.756Z,99118.88
2023-05-10T12:38:45.402Z,99118.88
2023-05-10T12:41:14.063Z,99115.56
2023-05-10T12:43:41.238Z,99135.16
2023-05-10T12:46:08.080Z,99124.69
2023-05-10T12:48:35.629Z,99127.88
2023-05-10T12:51:03.136Z,99124.94
2023-05-10T12:53:29.645Z,99134.25
2023-05-10T12:55:56.318Z,99133.91
2023-05-10T12:58:34.964Z,99139.22
2023-05-10T13:01:02.547Z,99136.72
2023-05-10T13:03:29.120Z,99144.03
2023-05-10T13:05:55.814Z,99143.91
2023-05-10T13:08:22.377Z,99146.97
2023-05-10T13:10:49.317Z,99140.75
2023-05-10T13:13:16.585Z,99140.00
2023-05-10T13:15:43.077Z,99135.31
2023-05-10T13:18:09.664Z,99136.28
2023-05-10T13:20:36.243Z,99132.31
2023-05-10T13:23:03.606Z,99136.75
2023-05-10T13:25:30.357Z,99137.69
2023-05-10T13:27:56.829Z,99126.25
2023-05-10T13:30:24.763Z,99133.03
2023-05-10T13:32:51.537Z,99123.88
2023-05-10T13:35:18.254Z,99115.06
2023-05-10T13:37:44.923Z,99123.06
2023-05-10T13:40:11.667Z,99115.72
2023-05-10T13:42:38.479Z,99128.47
2023-05-10T13:45:05.611Z,99122.28
2023-05-10T13:47:32.267Z,99126.28
2023-05-10T13:49:59.337Z,99112.22
2023-05-10T13:52:26.138Z,99117.69
2023-05-10T13:54:53.286Z,99110.81
2023-05-10T13:57:19.745Z,99109.56
2023-05-10T13:59:46.308Z,99105.41
2023-05-10T14:02:14.179Z,99109.72
2023-05-10T14:04:40.758Z,99097.69
2023-05-10T14:07:07.275Z,99093.97
2023-05-10T14:09:33.842Z,99102.75
2023-05-10T14:12:00.403Z,99090.50
2023-05-10T14:14:26.999Z,99090.97
2023-05-10T14:16:53.464Z,99080.41
2023-05-10T14:19:20.070Z,99081.41
2023-05-10T14:21:46.635Z,99073.88
2023-05-10T14:24:13.155Z,99081.47
2023-05-10T14:26:39.730Z,99072.09
2023-05-10T14:29:06.184Z,99084.69
2023-05-10T14:31:32.898Z,99082.97
2023-05-10T14:34:00.179Z,99092.94
2023-05-10T14:36:26.842Z,99080.94
2023-05-10T14:38:53.414Z,99086.94
2023-05-10T14:41:19.900Z,99083.06
2023-05-10T14:43:46.878Z,99073.53
2023-05-10T14:46:13.554Z,99058.19
2023-05-10T14:48:40.224Z,99063.19
2023-05-10T14:51:07.460Z,99059.56
2023-05-10T14:53:34.089Z,99053.94
2023-05-10T14:56:02.231Z,99055.41
2023-05-10T14:58:28.927Z,99058.91
2023-05-10T15:00:55.453Z,99066.41
2023-05-10T15:03:22.376Z,99064.09
2023-05-10T15:05:49.339Z,99064.19
2023-05-10T15:08:15.726Z,99068.91
2023-05-10T15:10:42.572Z,99079.56
2023-05-10T15:13:09.059Z,99071.19
2023-05-10T15:15:35.599Z,99072.97
2023-05-10T15:18:02.176Z,99066.19
2023-05-10T15:20:28.884Z,99054.59
2023-05-10T15:22:55.414Z,99047.78
2023-05-10T15:25:22.181Z,99054.03
2023-05-10T15:27:48.724Z,99037.75
2023-05-10T15:30:15.417Z,99041.19
2023-05-10T15:32:41.953Z,99048.38
2023-05-10T15:35:10.553Z,99051.00
2023-05-10T15:37:37.820Z,99059.91
2023-05-10T15:40:05.134Z,99068.72
2023-05-10T15:42:32.581Z,99065.53
2023-05-10T15:44:59.647Z,99076.28
2023-05-10T15:47:27.016Z,99068.63
2023-05-10T15:49:53.604Z,99073.94
2023-05-10T15:52:21.647Z,99085.78
2023-05-10T15:54:48.261Z,99083.25
2023-05-10T15:57:14.870Z,99080.06
2023-05-10T15:59:41.697Z,99082.03
2023-05-10T16:02:10.854Z,99081.66
2023-05-10T16:04:37.840Z,99083.56
2023-05-10T16:07:04.565Z,99086.88
2023-05-10T16:09:31.082Z,99094.88
2023-05-10T16:11:57.594Z,99091.72
2023-05-10T16:14:24.752Z,99091.84
2023-05-10T16:16:51.735Z,99101.97
2023-05-10T16:19:18.500Z,99101.28
2023-05-10T16:21:45.292Z,99100.25
2023-05-10T16:24:11.855Z,99107.38
2023-05-10T16:26:40.968Z,99109.75
2023-05-10T16:29:10.919Z,99108.09
2023-05-10T16:31:37.529Z,99111.94
2023-05-10T16:34:04.221Z,99108.09
2023-05-10T16:36:31.537Z,99108.72
2023-05-10T16:38:58.432Z,99117.81
2023-05-10T16:41:25.894Z,99103.22
2023-05-10T16:43:52.567Z,99108.00
2023-05-10T16:46:19.134Z,99116.00
2023-05-10T16:48:46.010Z,99123.63
2023-05-10T16:51:12.590Z,99107.16
2023-05-10T16:53:39.231Z,99108.59
2023-05-10T16:56:05.956Z,99108.38
2023-05-10T16:58:32.457Z,99115.19
2023-05-10T17:00:58.984Z,99104.72
2023-05-10T17:03:26.021Z,99111.19
2023-05-10T17:05:52.656Z,99106.00
2023-05-10T17:08:19.271Z,99107.16
2023-05-10T17:10:46.134Z,99117.31
2023-05-10T17:13:12.694Z,99115.78
2023-05-10T17:15:39.689Z,99117.22
2023-05-10T17:18:07.533Z,99125.75
2023-05-10T17:20:34.487Z,99128.38
2023-05-10T17:23:02.699Z,99121.78
2023-05-10T17:25:29.620Z,99125.63
2023-05-10T17:27:56.155Z,99128.47
2023-05-10T17:30:26.375Z,99131.25
2023-05-10T17:32:54.369Z,99128.94
2023-05-10T17:35:21.566Z,99134.13
2023-05-10T17:37:48.217Z,99134.47
2023-05-10T17:40:15.042Z,99145.19
2023-05-10T17:42:41.965Z,99139.19
2023-05-10T17:45:09.154Z,99147.22
2023-05-10T17:47:35.789Z,99158.97
2023-05-10T17:50:02.403Z,99155.03
2023-05-10T17:52:31.367Z,99166.63
2023-05-10T17:54:59.843Z,99158.75
2023-05-10T17:57:26.442Z,99162.44
2023-05-10T17:59:53.013Z,99163.44
2023-05-10T18:02:19.616Z,99162.41
2023-05-10T18:04:46.423Z,99169.34
2023-05-10T18:07:13.083Z,99162.34
2023-05-10T18:09:39.585Z,99167.16
2023-05-10T18:12:06.737Z,99161.28
2023-05-10T18:14:40.530Z,99169.44
2023-05-10T18:17:09.127Z,99174.88
2023-05-10T18:19:35.817Z,99156.22
2023-05-10T18:22:02.771Z,99168.69
2023-05-10T18:24:37.515Z,99170.47
2023-05-10T18:27:05.887Z,99167.78
2023-05-10T18:29:32.823Z,99165.06
2023-05-10T18:31:59.390Z,99166.34
2023-05-10T18:34:25.969Z,99175.31
2023-05-10T18:36:52.792Z,99177.38
2023-05-10T18:39:19.488Z,99178.81
2023-05-10T18:41:46.101Z,99180.75
2023-05-10T18:44:12.646Z,99176.41
2023-05-10T18:46:39.511Z,99190.63
2023-05-10T18:49:08.363Z,99186.78
2023-05-10T18:51:35.057Z,99190.56
2023-05-10T18:54:01.579Z,99193.25
2023-05-10T18:56:28.254Z,99186.69
2023-05-10T18:58:54.921Z,99185.38
2023-05-10T19:01:21.657Z,99186.78
2023-05-10T19:03:48.292Z,99186.91
2023-05-10T19:06:14.877Z,99196.31
2023-05-10T19:08:41.401Z,99193.75
2023-05-10T19:11:07.975Z,99191.78
2023-05-10T19:13:34.567Z,99188.09
2023-05-10T19:16:10.581Z,99182.34
2023-05-10T19:18:38.462Z,99192.31
2023-05-10T19:21:09.653Z,99191.50
2023-05-10T19:23:40.400Z,99199.25
2023-05-10T19:26:09.332Z,99210.19
2023-05-10T19:28:36.603Z,99211.44
2023-05-10T19:31:03.503Z,99224.31
2023-05-10T19:33:30.174Z,99221.44
2023-05-10T19:35:56.720Z,99228.84
2023-05-10T19:38:24.359Z,99228.66
2023-05-10T19:40:57.504Z,99239.41
2023-05-10T19:43:29.171Z,99233.34
2023-05-10T19:45:59.277Z,99245.47
2023-05-10T19:48:26.538Z,99232.75
2023-05-10T19:50:53.783Z,99247.19
2023-05-10T19:53:20.324Z,99239.19
2023-05-10T19:55:46.990Z,99243.31
2023-05-10T19:58:13.501Z,99252.53
2023-05-10T20:00:40.065Z,99251.75
2023-05-10T20:03:09.165Z,99251.75
2023-05-10T20:05:36.126Z,99248.53
2023-05-10T20:08:02.719Z,99251.53
2023-05-10T20:10:29.381Z,99250.72
2023-05-10T20:12:55.978Z,99249.13
2023-05-10T20:15:23.474Z,99251.34
2023-05-10T20:17:52.206Z,99249.25
2023-05-10T20:20:20.159Z,99244.25
2023-05-10T20:22:47.959Z,99244.34
2023-05-10T20:25:15.236Z,99241.97
2023-05-10T20:27:41.931Z,99247.38
2023-05-10T20:30:10.452Z,99239.28
2023-05-10T20:32:38.042Z,99243.06
2023-05-10T20:35:05.698Z,99238.78
2023-05-10T20:37:32.500Z,99234.34
2023-05-10T20:39:59.018Z,99238.16
2023-05-10T20:42:25.613Z,99247.38
2023-05-10T20:44:52.237Z,99237.66
2023-05-10T20:47:19.005Z,99237.47
2023-05-10T20:49:45.898Z,99246.69
2023-05-10T20:52:12.572Z,99248.56
2023-05-10T20:54:39.112Z,99253.97
2023-05-10T20:57:05.776Z,99246.69
2023-05-10T20:59:32.396Z,99246.34
2023-05-10T21:01:59.269Z,99254.78
2023-05-10T21:04:26.036Z,99256.78
2023-05-10T21:06:53.321Z,99254.41
2023-05-10T21:09:19.989Z,99252.00
2023-05-10T21:11:46.633Z,99258.22
2023-05-10T21:14:13.261Z,99257.19
2023-05-10T21:16:39.987Z,99262.91
2023-05-10T21:19:07.619Z,99254.72
2023-05-10T21:21:34.463Z,99245.38
2023-05-10T21:24:01.213Z,99246.59
2023-05-10T21:26:27.807Z,99242.41
2023-05-10T21:28:54.449Z,99253.78
2023-05-10T21:31:21.434Z,99254.38
2023-05-10T21:33:48.057Z,99251.78
2023-05-10T21:36:15.012Z,99247.78
2023-05-10T21:38:44.246Z,99247.59
2023-05-10T21:41:11.090Z,99252.78
2023-05-10T21:43:37.721Z,99252.00
2023-05-10T21:46:04.784Z,99254.94
2023-05-10T21:48:31.454Z,99251.38
2023-05-10T21:50:58.758Z,99258.91
2023-05-10T21:53:25.368Z,99258.28
2023-05-10T21:55:51.912Z,99263.59
2023-05-10T21:58:18.613Z,99257.41
2023-05-10T22:00:45.140Z,99261.72
2023-05-10T22:03:11.829Z,99265.50
2023-05-10T22:05:39.010Z,99262.00
2023-05-10T22:08:06.572Z,99258.19
2023-05-10T22:10:33.401Z,99251.78
2023-05-10T22:13:00.321Z,99255.59
2023-05-10T22:15:27.435Z,99250.47
2023-05-10T22:17:54.022Z,99257.78
2023-05-10T22:20:21.179Z,99249.19
2023-05-10T22:22:47.951Z,99249.78
2023-05-10T22:25:14.751Z,99252.00
2023-05-10T22:27:41.455Z,99254.13
2023-05-10T22:30:08.717Z,99250.34
2023-05-10T22:32:35.241Z,99259.78
2023-05-10T22:35:02.420Z,99261.16
2023-05-10T22:37:28.971Z,99261.94
2023-05-10T22:39:55.525Z,99261.72
2023-05-10T22:42:22.131Z,99265.53
2023-05-10T22:44:48.647Z,99261.72
2023-05-10T22:47:16.382Z,99268.25
2023-05-10T22:49:42.930Z,99267.13
2023-05-10T22:52:09.783Z,99267.13
2023-05-10T22:54:36.553Z,99266.34
2023-05-10T22:57:03.342Z,99269.94
2023-05-10T22:59:29.982Z,99269.94
2023-05-10T23:01:56.578Z,99276.66
2023-05-10T23:04:23.198Z,99274.75
2023-05-10T23:06:49.825Z,99277.94
2023-05-10T23:09:16.497Z,99272.53
2023-05-10T23:11:43.253Z,99276.34
2023-05-10T23:14:09.731Z,99284.94
2023-05-10T23:16:36.700Z,99281.72
2023-05-10T23:19:03.386Z,99280.63
2023-05-10T23:21:31.972Z,99275.72
2023-05-10T23:23:58.985Z,99274.59
2023-05-10T23:26:25.634Z,99279.41
2023-05-10T23:28:52.372Z,99283.13
2023-05-10T23:31:19.012Z,99278.22
2023-05-10T23:33:45.664Z,99281.91
2023-05-10T23:36:12.472Z,99271.81
2023-05-10T23:38:39.452Z,99280.66
2023-05-10T23:41:06.219Z,99275.63
2023-05-10T23:43:32.788Z,99276.63
2023-05-10T23:45:59.556Z,99285.94
2023-05-10T23:48:26.283Z,99277.66
2023-05-10T23:50:53.349Z,99277.13
2023-05-10T23:53:19.997Z,99276.72
2023-05-10T23:55:46.828Z,99275.53
2023-05-10T23:58:13.483Z,99275.41
